Погода Буритисна 2 недели

Минас-Жерайс, Бразилия

17 - 30 июля
  • 17июля
    Сегодня
    +14°
    +30°
    Ясно и безоблачно
    ВремяПогодаТемператураВлажностьДавлениеВетер, м/сВероятность осадков
    00:00Ясно и безоблачно+18°C60 %715 мм0.7 м/с5 %
    03:00Ясно и безоблачно+16°C61 %715 мм1.2 м/с5 %
    06:00Ясно и безоблачно+14°C70 %715 мм1.2 м/с5 %
    09:00Ясно и безоблачно+21°C49 %718 мм2.0 м/с5 %
    12:00Ясно и безоблачно+26°C38 %717 мм2.6 м/с5 %
    15:00Ясно и безоблачно+30°C32 %715 мм2.3 м/с5 %
    18:00Ясно и безоблачно+25°C43 %714 мм2.1 м/с5 %
    21:00Ясно и безоблачно+20°C59 %715 мм2.3 м/с5 %
  • 18июля
    Четверг
    +14°
    +31°
    Ясно и безоблачно
    ВремяПогодаТемператураВлажностьДавлениеВетер, м/сВероятность осадков
    00:00Практически безоблачно+17°C60 %714 мм0.5 м/с5 %
    03:00Облачно с прояснениями+15°C64 %713 мм0.8 м/с5 %
    06:00Облачно с прояснениями+15°C59 %713 мм0.5 м/с5 %
    09:00Облачно с прояснениями+21°C48 %716 мм1.2 м/с5 %
    12:00Практически безоблачно+28°C33 %715 мм2.0 м/с5 %
    15:00Ясно и безоблачно+31°C30 %714 мм2.8 м/с5 %
    18:00Ясно и безоблачно+26°C41 %714 мм2.0 м/с5 %
    21:00Ясно и безоблачно+22°C49 %714 мм1.9 м/с5 %
  • 19июля
    Пятница
    +15°
    +31°
    Ясно и безоблачно
    ВремяПогодаТемператураВлажностьДавлениеВетер, м/сВероятность осадков
    00:00Ясно и безоблачно+20°C50 %714 мм0.3 м/с5 %
    03:00Ясно и безоблачно+17°C56 %713 мм0.7 м/с5 %
    06:00Ясно и безоблачно+16°C59 %714 мм0.3 м/с5 %
    09:00Ясно и безоблачно+22°C48 %717 мм1.3 м/с5 %
    12:00Ясно и безоблачно+28°C32 %716 мм2.8 м/с5 %
    15:00Ясно и безоблачно+31°C28 %715 мм3.3 м/с5 %
    18:00Ясно и безоблачно+26°C38 %714 мм2.0 м/с5 %
    21:00Ясно и безоблачно+22°C47 %715 мм1.8 м/с5 %
  • 20июля
    Суббота
    +13°
    +31°
    Ясно и безоблачно
    ВремяПогодаТемператураВлажностьДавлениеВетер, м/сВероятность осадков
    00:00Ясно и безоблачно+18°C54 %714 мм0.7 м/с5 %
    03:00Ясно и безоблачно+16°C59 %714 мм1.3 м/с5 %
    06:00Ясно и безоблачно+16°C59 %714 мм1.5 м/с5 %
    09:00Ясно и безоблачно+21°C45 %717 мм1.9 м/с5 %
    12:00Ясно и безоблачно+28°C33 %716 мм2.9 м/с5 %
    15:00Ясно и безоблачно+31°C29 %714 мм2.8 м/с5 %
    18:00Ясно и безоблачно+25°C41 %713 мм1.9 м/с5 %
    21:00Ясно и безоблачно+23°C45 %714 мм1.4 м/с5 %
  • 21июля
    Воскресенье
    +13°
    +31°
    Ясно и безоблачно
    ВремяПогодаТемператураВлажностьДавлениеВетер, м/сВероятность осадков
    00:00Ясно и безоблачно+19°C56 %714 мм0.8 м/с5 %
    03:00Ясно и безоблачно+15°C66 %712 мм1.8 м/с5 %
    06:00Ясно и безоблачно+14°C71 %713 мм1.9 м/с5 %
    09:00Ясно и безоблачно+21°C50 %716 мм2.4 м/с5 %
    12:00Ясно и безоблачно+27°C38 %715 мм2.6 м/с5 %
    15:00Ясно и безоблачно+31°C31 %714 мм3.2 м/с5 %
    18:00Ясно и безоблачно+26°C39 %713 мм2.0 м/с5 %
    21:00Ясно и безоблачно+21°C53 %714 мм1.8 м/с5 %
Мы используем cookies
Соглашаюсь